createdAt,value
2019-04-21T13:20:30.044Z,946.53
2019-04-21T13:21:30.065Z,946.53
2019-04-21T13:23:03.883Z,946.45
2019-04-21T13:24:03.332Z,946.49
2019-04-21T13:25:57.736Z,946.45
2019-04-21T13:26:59.859Z,946.42
2019-04-21T13:27:58.669Z,946.43
2019-04-21T13:28:58.431Z,946.47
2019-04-21T13:29:57.680Z,946.41
2019-04-21T13:30:58.221Z,946.39
2019-04-21T13:31:58.423Z,946.35
2019-04-21T13:32:58.910Z,946.36
2019-04-21T13:33:57.975Z,946.36
2019-04-21T13:34:58.990Z,946.36
2019-04-21T13:35:59.129Z,946.34
2019-04-21T13:36:57.683Z,946.38
2019-04-21T13:37:58.375Z,946.35
2019-04-21T13:39:27.614Z,946.32
2019-04-21T13:40:21.090Z,946.29
2019-04-21T13:41:13.115Z,946.24
2019-04-21T13:42:09.840Z,946.22
2019-04-21T13:43:02.130Z,946.20
2019-04-21T13:43:59.104Z,946.16
2019-04-21T13:45:00.562Z,946.12
2019-04-21T13:45:57.673Z,946.15
2019-04-21T13:46:58.748Z,946.12
2019-04-21T13:47:58.733Z,946.08
2019-04-21T13:48:59.026Z,946.15
2019-04-21T13:49:59.822Z,946.08
2019-04-21T13:50:57.670Z,946.07
2019-04-21T13:51:57.669Z,946.09
2019-04-21T13:52:58.668Z,946.08
2019-04-21T13:53:57.745Z,946.08
2019-04-21T13:54:57.942Z,946.09
2019-04-21T13:55:58.494Z,946.03
2019-04-21T13:56:58.631Z,946.03
2019-04-21T13:57:58.830Z,946.04
2019-04-21T13:58:58.233Z,946.01
2019-04-21T13:59:57.659Z,946.04
2019-04-21T14:00:58.001Z,946.04
2019-04-21T14:01:58.383Z,946.01
2019-04-21T14:02:58.743Z,945.96
2019-04-21T14:03:59.714Z,945.97
2019-04-21T14:04:59.059Z,945.99
2019-04-21T14:05:58.317Z,945.95
2019-04-21T14:06:58.305Z,945.96
2019-04-21T14:07:58.020Z,946.01
2019-04-21T14:08:58.928Z,945.98
2019-04-21T14:10:02.544Z,945.99
2019-04-21T14:10:57.655Z,945.97
2019-04-21T14:11:59.063Z,945.96
2019-04-21T14:12:58.402Z,945.96
2019-04-21T14:13:58.586Z,945.95
2019-04-21T14:14:57.675Z,945.92
2019-04-21T14:15:57.930Z,945.91
2019-04-21T14:16:58.330Z,945.90
2019-04-21T14:17:58.386Z,945.90
2019-04-21T14:18:57.649Z,945.88
2019-04-21T14:19:57.653Z,945.91
2019-04-21T14:20:57.662Z,945.89
2019-04-21T14:21:57.645Z,945.87
2019-04-21T14:23:10.307Z,945.85
2019-04-21T14:23:58.141Z,945.90
2019-04-21T14:24:57.650Z,945.90
2019-04-21T14:25:57.645Z,945.86
2019-04-21T14:26:58.412Z,945.87
2019-04-21T14:27:57.922Z,945.84
2019-04-21T14:28:58.792Z,945.85
2019-04-21T14:29:57.733Z,945.86
2019-04-21T14:30:58.644Z,945.85
2019-04-21T14:31:58.080Z,945.81
2019-04-21T14:32:58.150Z,945.78
2019-04-21T14:33:58.301Z,945.76
2019-04-21T14:34:58.761Z,945.75
2019-04-21T14:35:58.904Z,945.78
2019-04-21T14:36:58.968Z,945.75
2019-04-21T14:37:58.458Z,945.77
2019-04-21T14:38:58.720Z,945.76
2019-04-21T14:40:04.008Z,945.76
2019-04-21T14:40:57.618Z,945.75
2019-04-21T14:41:58.111Z,945.76
2019-04-21T14:42:58.352Z,945.75
